Time;durP1;ratioP1;P1;durP2;ratioP2;P2;SDS_P1;SDS_P2;PMS_P1;PMS_P2;Temp;Humidity;BMP_temperature;BMP_pressure;BME280_temperature;BME280_humidity;BME280_pressure;Samples;Min_cycle;Max_cycle;Signal;HPM_P1;HPM_P2
2023/08/15 00:01:26;;;;;;;1.97;1.77;;;;;;;;;;5053063;28;20642;-72
2023/08/15 00:03:51;;;;;;;2.33;2.23;;;19.60;99.90;;;;;;5053198;28;20405;-73
2023/08/15 00:06:18;;;;;;;1.37;1.37;;;19.50;99.90;;;;;;5053023;28;20412;-72
2023/08/15 00:08:44;;;;;;;3.57;3.20;;;;;;;;;;5053138;28;20173;-74
2023/08/15 00:11:10;;;;;;;1.10;1.10;;;19.50;99.90;;;;;;5052887;28;20894;-74
2023/08/15 00:13:36;;;;;;;1.33;1.33;;;19.40;99.90;;;;;;5052969;28;20470;-72
2023/08/15 00:16:02;;;;;;;1.93;1.83;;;;;;;;;;5053128;28;20180;-74
2023/08/15 00:18:27;;;;;;;1.00;1.00;;;19.40;99.90;;;;;;5053075;28;20175;-72
2023/08/15 00:20:53;;;;;;;1.90;1.80;;;;;;;;;;5052603;28;20411;-73
2023/08/15 00:23:20;;;;;;;3.00;2.70;;;;;;;;;;5052822;28;20201;-73
2023/08/15 00:25:45;;;;;;;1.40;1.30;;;19.50;99.90;;;;;;5052965;28;20428;-73
2023/08/15 00:28:11;;;;;;;1.20;1.20;;;19.50;99.90;;;;;;5052706;28;20504;-73
2023/08/15 00:30:37;;;;;;;1.70;1.60;;;;;;;;;;5052887;28;20662;-72
2023/08/15 00:33:03;;;;;;;2.37;2.17;;;19.40;99.90;;;;;;5052570;28;20194;-72
2023/08/15 00:35:28;;;;;;;3.30;2.90;;;19.50;99.90;;;;;;5052808;28;20403;-72
2023/08/15 00:37:54;;;;;;;3.17;2.93;;;19.50;99.90;;;;;;5052814;28;20167;-73
2023/08/15 00:40:20;;;;;;;1.57;1.47;;;19.50;99.90;;;;;;5052821;28;20172;-72
2023/08/15 00:42:45;;;;;;;1.73;1.63;;;19.50;99.90;;;;;;5052403;28;20228;-73
2023/08/15 00:45:11;;;;;;;1.63;1.53;;;19.60;99.90;;;;;;5052779;28;20176;-72
2023/08/15 00:47:37;;;;;;;2.37;2.23;;;19.70;99.90;;;;;;5052657;28;20557;-74
2023/08/15 00:50:06;;;;;;;2.63;2.20;;;19.70;99.90;;;;;;5052587;28;20205;-73
2023/08/15 00:52:31;;;;;;;1.63;1.33;;;19.70;99.90;;;;;;5052402;28;20428;-72
2023/08/15 00:54:58;;;;;;;1.97;1.83;;;19.60;99.90;;;;;;5052639;28;20502;-72
2023/08/15 00:57:24;;;;;;;3.13;1.63;;;19.70;99.90;;;;;;5052617;28;20704;-72
2023/08/15 00:59:50;;;;;;;5.33;3.53;;;19.60;99.90;;;;;;5052519;28;20565;-73
2023/08/15 01:02:16;;;;;;;2.30;2.13;;;19.60;99.90;;;;;;5052766;28;20196;-72
2023/08/15 01:04:42;;;;;;;2.27;1.60;;;19.60;99.90;;;;;;5056374;28;20411;-73
2023/08/15 01:07:09;;;;;;;3.00;2.70;;;19.10;99.90;;;;;;5056198;28;20558;-74
2023/08/15 01:09:35;;;;;;;2.77;2.67;;;19.40;99.90;;;;;;5056151;28;20533;-73
2023/08/15 01:12:08;;;;;;;5.53;4.47;;;19.40;99.90;;;;;;5055698;28;20515;-73
2023/08/15 01:14:41;;;;;;;2.23;2.13;;;19.30;99.90;;;;;;5056192;28;20395;-73
2023/08/15 01:17:12;;;;;;;2.40;2.20;;;19.40;99.90;;;;;;5055909;28;20405;-74
2023/08/15 01:19:45;;;;;;;2.67;1.67;;;19.30;99.90;;;;;;5055981;28;20411;-74
2023/08/15 01:22:27;;;;;;;2.83;2.60;;;19.20;99.90;;;;;;5055647;28;20418;-72
2023/08/15 01:24:53;;;;;;;3.17;2.50;;;19.20;99.90;;;;;;5055753;28;20437;-72
2023/08/15 01:27:18;;;;;;;1.90;1.70;;;19.20;99.90;;;;;;5055802;28;20903;-72
2023/08/15 01:29:44;;;;;;;3.17;2.93;;;19.30;99.90;;;;;;5055681;28;20459;-73
2023/08/15 01:32:38;;;;;;;2.03;1.93;;;19.30;99.90;;;;;;5055248;28;20930;-73
2023/08/15 01:35:13;;;;;;;2.23;2.13;;;19.40;99.90;;;;;;5055622;28;20181;-73
2023/08/15 01:37:43;;;;;;;3.63;2.77;;;19.30;99.90;;;;;;5055648;28;20405;-73
2023/08/15 01:40:12;;;;;;;2.33;2.20;;;19.20;99.90;;;;;;5055690;28;20433;-73
2023/08/15 01:42:40;;;;;;;2.23;2.13;;;19.30;99.90;;;;;;5055278;28;20436;-72
2023/08/15 01:45:08;;;;;;;2.93;2.20;;;19.20;99.90;;;;;;5055348;28;20425;-72
2023/08/15 01:47:34;;;;;;;1.97;1.87;;;;;;;;;;5055150;28;20473;-72
2023/08/15 01:50:00;;;;;;;2.10;2.00;;;19.10;99.90;;;;;;5055231;28;20461;-73
2023/08/15 01:52:25;;;;;;;2.33;2.13;;;19.10;99.90;;;;;;5054868;28;20441;-72
2023/08/15 01:54:51;;;;;;;1.60;1.50;;;19.00;99.90;;;;;;5055113;28;20214;-74
2023/08/15 01:57:17;;;;;;;1.70;1.60;;;19.00;99.90;;;;;;5055197;28;20228;-71
2023/08/15 01:59:43;;;;;;;4.20;2.97;;;;;;;;;;5055353;28;20176;-73
2023/08/15 02:02:10;;;;;;;2.47;2.20;;;18.80;99.90;;;;;;5054713;28;20189;-73
2023/08/15 02:04:36;;;;;;;1.80;1.70;;;18.70;99.90;;;;;;5055117;28;20465;-72
2023/08/15 02:07:01;;;;;;;0.90;0.90;;;18.80;99.90;;;;;;5055324;28;20846;-73
2023/08/15 02:09:27;;;;;;;1.77;1.67;;;18.70;99.90;;;;;;5055064;28;20257;-72
2023/08/15 02:11:53;;;;;;;5.00;3.53;;;18.80;99.90;;;;;;5054613;28;20186;-73
2023/08/15 02:14:18;;;;;;;1.03;1.03;;;18.70;99.90;;;;;;5054794;28;20173;-73
2023/08/15 02:16:44;;;;;;;1.37;1.23;;;18.70;99.90;;;;;;5054814;28;20167;-72
2023/08/15 02:19:10;;;;;;;2.07;1.97;;;;;;;;;;5054754;28;20167;-72
2023/08/15 02:21:36;;;;;;;2.20;2.00;;;18.70;99.90;;;;;;5054405;28;20201;-71
2023/08/15 02:24:01;;;;;;;2.03;1.93;;;18.30;99.90;;;;;;5054651;28;20408;-72
2023/08/15 02:26:27;;;;;;;2.33;2.13;;;18.60;99.90;;;;;;5054646;28;20661;-72
2023/08/15 02:28:53;;;;;;;2.80;1.70;;;;;;;;;;5054837;28;20212;-73
2023/08/15 02:31:19;;;;;;;1.53;1.43;;;18.60;99.90;;;;;;5054319;28;20217;-72
2023/08/15 02:33:44;;;;;;;1.93;1.37;;;18.60;99.90;;;;;;5054362;28;20433;-73
2023/08/15 02:36:10;;;;;;;3.50;3.20;;;18.60;99.90;;;;;;5054401;28;20166;-73
2023/08/15 02:38:35;;;;;;;1.60;1.30;;;18.60;99.90;;;;;;5054476;28;20220;-72
2023/08/15 02:41:02;;;;;;;1.70;1.60;;;;;;;;;;5054236;28;20167;-73
2023/08/15 02:43:27;;;;;;;1.77;1.63;;;18.50;99.90;;;;;;5054210;28;20194;-73
2023/08/15 02:45:53;;;;;;;2.17;1.67;;;18.30;99.90;;;;;;5054240;28;20756;-74
2023/08/15 02:48:18;;;;;;;1.20;1.20;;;18.30;99.90;;;;;;5054093;28;20171;-74
2023/08/15 02:50:44;;;;;;;2.30;1.90;;;;;;;;;;5054124;28;20198;-72
2023/08/15 02:53:10;;;;;;;4.03;3.70;;;18.30;99.90;;;;;;5053986;28;20190;-73
2023/08/15 02:55:36;;;;;;;3.40;3.20;;;18.20;99.90;;;;;;5052928;28;20479;-73
2023/08/15 02:58:02;;;;;;;2.57;1.97;;;18.30;99.90;;;;;;5054249;28;20171;-73
2023/08/15 03:00:27;;;;;;;1.80;1.30;;;18.40;99.90;;;;;;5054126;28;20166;-73
2023/08/15 03:02:53;;;;;;;1.20;1.20;;;18.40;99.90;;;;;;5053780;28;20839;-72
2023/08/15 03:05:19;;;;;;;1.80;1.70;;;18.30;99.90;;;;;;5053964;28;20179;-73
2023/08/15 03:07:45;;;;;;;1.40;1.30;;;18.30;99.90;;;;;;5053541;28;20839;-72
2023/08/15 03:10:10;;;;;;;1.07;1.07;;;18.30;99.90;;;;;;5052903;28;20210;-73
2023/08/15 03:18:34;;;;;;;1.43;1.40;;;18.30;99.90;;;;;;5013876;28;20436;-73
2023/08/15 03:21:05;;;;;;;2.13;2.03;;;18.30;99.90;;;;;;5013234;28;20825;-73
2023/08/15 03:23:31;;;;;;;2.30;2.13;;;18.30;99.90;;;;;;5013795;28;20178;-73
2023/08/15 03:26:01;;;;;;;2.50;1.40;;;18.30;99.90;;;;;;5013098;28;20406;-73
2023/08/15 03:28:27;;;;;;;0.83;0.83;;;18.60;99.90;;;;;;5013693;28;20466;-72
2023/08/15 03:30:54;;;;;;;1.87;1.77;;;;;;;;;;5013835;28;20488;-72
2023/08/15 03:33:19;;;;;;;2.10;1.10;;;18.20;99.90;;;;;;5013337;28;20206;-72
2023/08/15 03:35:49;;;;;;;2.27;2.17;;;18.20;99.90;;;;;;5013699;28;20427;-72
2023/08/15 03:38:17;;;;;;;3.30;3.00;;;18.20;99.90;;;;;;5013893;28;20197;-73
2023/08/15 03:40:44;;;;;;;0.90;0.90;;;18.20;99.90;;;;;;5013834;28;20434;-73
2023/08/15 03:43:10;;;;;;;2.23;2.10;;;18.20;99.90;;;;;;5013652;28;20411;-73
2023/08/15 03:45:41;;;;;;;1.27;1.17;;;18.30;99.90;;;;;;5013554;28;20426;-73
2023/08/15 03:48:09;;;;;;;5.90;2.30;;;18.30;99.90;;;;;;5013668;28;20413;-72
2023/08/15 03:50:38;;;;;;;1.87;1.77;;;18.30;99.90;;;;;;5013450;28;20560;-73
2023/08/15 03:53:04;;;;;;;0.97;0.97;;;18.40;99.90;;;;;;5013956;28;20410;-73
2023/08/15 03:55:31;;;;;;;2.27;2.07;;;18.60;99.90;;;;;;5013449;28;20505;-71
2023/08/15 03:57:57;;;;;;;1.07;1.00;;;18.60;99.90;;;;;;5013632;28;20410;-72
2023/08/15 04:00:24;;;;;;;1.07;1.00;;;18.60;99.90;;;;;;5013468;28;20495;-72
2023/08/15 04:02:50;;;;;;;2.00;1.30;;;18.70;99.90;;;;;;5013686;28;20417;-72
2023/08/15 04:05:17;;;;;;;1.60;1.20;;;18.70;99.90;;;;;;5013383;28;20421;-72
2023/08/15 04:07:44;;;;;;;1.30;1.20;;;18.60;99.90;;;;;;5013629;28;20405;-73
2023/08/15 04:10:11;;;;;;;3.70;2.37;;;18.70;99.90;;;;;;5013514;28;20468;-72
2023/08/15 04:12:37;;;;;;;5.03;2.40;;;18.70;99.90;;;;;;5013446;28;20403;-73
2023/08/15 04:15:04;;;;;;;2.30;1.30;;;18.80;99.90;;;;;;5013380;28;20417;-72
2023/08/15 04:17:30;;;;;;;10.63;2.40;;;18.90;99.90;;;;;;5013472;28;20498;-72
2023/08/15 04:19:56;;;;;;;1.17;1.07;;;;;;;;;;5013156;28;21003;-72
2023/08/15 04:22:22;;;;;;;1.97;1.87;;;19.00;99.90;;;;;;5013253;28;20502;-73
2023/08/15 04:24:48;;;;;;;3.13;2.00;;;19.00;99.90;;;;;;5013317;28;20421;-72
2023/08/15 04:27:14;;;;;;;17.60;1.80;;;;;;;;;;5012967;28;20207;-72
2023/08/15 04:29:39;;;;;;;1.20;1.10;;;19.00;99.90;;;;;;5013107;28;20432;-72
2023/08/15 04:32:05;;;;;;;3.67;1.83;;;19.00;99.90;;;;;;5013229;28;20420;-71
2023/08/15 04:34:31;;;;;;;2.10;1.47;;;18.90;99.90;;;;;;5013265;28;20229;-72
2023/08/15 04:36:56;;;;;;;3.77;2.47;;;18.90;99.90;;;;;;5013850;28;20568;-72
2023/08/15 04:39:22;;;;;;;1.83;1.80;;;19.00;99.90;;;;;;5017354;28;20232;-71
2023/08/15 04:41:48;;;;;;;1.90;1.70;;;19.00;99.90;;;;;;5017091;28;20179;-73
2023/08/15 04:44:14;;;;;;;4.20;3.80;;;19.10;99.90;;;;;;5016684;28;20423;-73
2023/08/15 04:46:39;;;;;;;1.47;1.40;;;19.10;99.90;;;;;;5016940;28;20175;-73
2023/08/15 04:49:05;;;;;;;1.10;1.00;;;19.40;99.90;;;;;;5016615;28;20422;-73
2023/08/15 04:51:30;;;;;;;3.80;2.10;;;19.20;99.90;;;;;;5016416;28;20202;-73
2023/08/15 04:53:56;;;;;;;0.90;0.90;;;19.20;99.90;;;;;;5016472;28;20172;-73
2023/08/15 04:56:22;;;;;;;1.03;1.00;;;19.20;99.90;;;;;;5016461;28;20173;-73
2023/08/15 04:58:48;;;;;;;1.43;1.43;;;19.20;99.90;;;;;;5016387;28;20182;-73
2023/08/15 05:01:14;;;;;;;2.23;2.13;;;19.20;99.90;;;;;;5016277;28;20448;-73
2023/08/15 05:03:40;;;;;;;1.87;1.77;;;19.10;99.90;;;;;;5016412;28;20434;-72
2023/08/15 05:06:06;;;;;;;1.53;1.47;;;19.00;99.90;;;;;;5016208;28;20416;-73
2023/08/15 05:08:31;;;;;;;1.63;1.40;;;18.90;99.90;;;;;;5016232;28;20410;-72
2023/08/15 05:10:57;;;;;;;1.60;1.50;;;19.00;99.90;;;;;;5016112;28;20296;-73
2023/08/15 05:13:23;;;;;;;1.50;1.40;;;;;;;;;;5016408;28;20317;-73
2023/08/15 05:15:49;;;;;;;1.90;1.80;;;19.10;99.90;;;;;;5016247;28;20580;-72
2023/08/15 05:18:16;;;;;;;0.73;0.73;;;19.30;99.90;;;;;;5016427;28;20411;-73
2023/08/15 05:20:43;;;;;;;6.13;2.27;;;;;;;;;;5016053;28;20675;-73
2023/08/15 05:23:08;;;;;;;2.10;2.00;;;19.50;99.90;;;;;;5016179;28;20491;-73
2023/08/15 05:25:34;;;;;;;2.77;1.57;;;19.50;99.90;;;;;;5016009;28;20504;-73
2023/08/15 05:28:06;;;;;;;2.10;1.33;;;19.50;99.90;;;;;;4998192;28;20187;-73
2023/08/15 05:30:32;;;;;;;1.30;1.17;;;19.60;99.90;;;;;;5015968;28;20694;-71
2023/08/15 05:32:58;;;;;;;1.83;1.33;;;19.70;99.90;;;;;;5015971;28;20407;-73
2023/08/15 05:35:25;;;;;;;1.90;1.80;;;;;;;;;;5015859;28;20519;-73
2023/08/15 05:37:50;;;;;;;0.77;0.77;;;20.00;99.90;;;;;;5016114;28;20410;-72
2023/08/15 05:40:16;;;;;;;1.47;1.33;;;20.10;99.90;;;;;;5015826;28;20435;-73
2023/08/15 05:42:42;;;;;;;4.80;1.40;;;20.20;99.90;;;;;;5015936;28;20182;-72
2023/08/15 05:45:08;;;;;;;1.47;1.37;;;20.20;99.90;;;;;;5014955;28;20186;-72
2023/08/15 05:47:34;;;;;;;2.93;1.90;;;20.20;99.90;;;;;;5014777;28;20180;-72
2023/08/15 05:50:00;;;;;;;1.00;0.83;;;20.20;99.90;;;;;;5013847;28;20459;-71
2023/08/15 05:52:26;;;;;;;3.37;1.90;;;20.20;99.90;;;;;;5014133;28;20826;-72
2023/08/15 05:54:52;;;;;;;1.10;1.07;;;20.40;99.90;;;;;;5014355;28;20168;-71
2023/08/15 05:57:18;;;;;;;1.87;0.83;;;20.50;99.90;;;;;;5014599;28;20559;-72
2023/08/15 05:59:43;;;;;;;1.43;1.33;;;20.60;99.90;;;;;;5014230;28;20581;-72
2023/08/15 06:02:09;;;;;;;1.80;1.70;;;;;;;;;;5015845;28;20687;-72
2023/08/15 06:04:36;;;;;;;1.90;1.80;;;;;;;;;;5014592;28;20520;-73
2023/08/15 06:07:02;;;;;;;1.33;1.23;;;21.10;99.90;;;;;;5014602;28;20435;-73
2023/08/15 06:09:28;;;;;;;1.87;1.47;;;21.30;99.90;;;;;;5015101;28;20955;-73
2023/08/15 06:11:54;;;;;;;3.50;1.60;;;;;;;;;;5015180;28;20488;-73
2023/08/15 06:14:20;;;;;;;1.83;1.13;;;21.70;99.90;;;;;;5014986;28;20181;-73
2023/08/15 06:16:46;;;;;;;1.07;1.07;;;21.80;99.90;;;;;;5015216;28;20852;-73
2023/08/15 06:19:12;;;;;;;1.20;1.17;;;22.30;99.90;;;;;;5014858;28;20198;-73
2023/08/15 06:21:41;;;;;;;4.63;1.97;;;22.10;99.90;;;;;;5015269;28;20960;-73
2023/08/15 06:24:10;;;;;;;2.40;1.83;;;22.20;99.90;;;;;;5014825;28;20436;-73
2023/08/15 06:26:36;;;;;;;2.63;2.00;;;22.30;99.90;;;;;;5015029;28;20417;-73
2023/08/15 06:29:03;;;;;;;3.53;1.90;;;22.10;99.90;;;;;;5015023;28;20537;-73
2023/08/15 06:31:30;;;;;;;3.03;2.77;;;22.30;99.90;;;;;;5014743;28;20458;-73
2023/08/15 06:33:55;;;;;;;2.13;2.03;;;22.50;99.90;;;;;;5014635;28;20384;-73
2023/08/15 06:36:21;;;;;;;1.40;1.30;;;22.60;99.90;;;;;;5014856;28;20772;-73
2023/08/15 06:38:49;;;;;;;1.50;1.43;;;22.60;99.90;;;;;;5014871;28;20183;-73
2023/08/15 06:41:14;;;;;;;2.77;2.57;;;22.50;99.90;;;;;;5014646;28;20437;-73
2023/08/15 06:43:40;;;;;;;1.70;1.60;;;;;;;;;;5014659;28;20749;-73
2023/08/15 06:46:06;;;;;;;1.60;1.50;;;22.60;99.90;;;;;;5014425;28;20684;-73
2023/08/15 06:48:32;;;;;;;1.67;1.40;;;22.70;99.90;;;;;;5014588;28;20413;-73
2023/08/15 06:50:57;;;;;;;2.43;2.23;;;23.00;99.90;;;;;;5014420;28;20204;-73
2023/08/15 06:53:23;;;;;;;1.73;1.63;;;23.20;99.90;;;;;;5014592;28;20665;-73
2023/08/15 06:55:49;;;;;;;1.27;1.17;;;23.30;99.90;;;;;;5014490;28;20198;-72
2023/08/15 06:58:15;;;;;;;1.03;1.00;;;23.40;99.90;;;;;;5014524;28;20250;-73
2023/08/15 07:00:43;;;;;;;3.43;2.00;;;23.50;99.90;;;;;;5013599;28;20412;-73
2023/08/15 07:03:08;;;;;;;1.53;1.43;;;23.60;99.90;;;;;;5014370;28;20406;-73
2023/08/15 07:05:35;;;;;;;1.40;1.30;;;;;;;;;;5014241;28;20439;-73
2023/08/15 07:08:03;;;;;;;1.80;1.33;;;23.60;99.90;;;;;;5014224;28;20178;-73
2023/08/15 07:10:29;;;;;;;1.53;1.43;;;23.70;99.90;;;;;;5013957;28;20968;-73
2023/08/15 07:12:55;;;;;;;1.13;0.90;;;23.70;99.90;;;;;;5014139;28;20464;-72
2023/08/15 07:15:20;;;;;;;1.77;1.30;;;23.50;99.90;;;;;;5013942;28;20407;-73
2023/08/15 07:17:46;;;;;;;1.20;1.10;;;23.30;99.90;;;;;;5014351;28;20222;-73
2023/08/15 07:20:14;;;;;;;1.67;1.57;;;23.10;99.90;;;;;;5013912;28;20597;-73
2023/08/15 07:22:40;;;;;;;2.70;1.10;;;23.00;99.90;;;;;;5014116;28;20171;-73
2023/08/15 07:25:06;;;;;;;0.70;0.70;;;22.90;99.90;;;;;;5013870;28;20406;-73
2023/08/15 07:27:33;;;;;;;2.20;1.27;;;;;;;;;;5013902;28;20422;-73
2023/08/15 07:29:58;;;;;;;1.33;1.23;;;22.20;99.90;;;;;;5013956;28;20462;-73
2023/08/15 07:32:26;;;;;;;2.53;0.80;;;22.20;99.90;;;;;;5014274;28;20952;-73
2023/08/15 07:34:52;;;;;;;1.13;1.03;;;22.10;99.90;;;;;;5013719;28;20730;-73
2023/08/15 07:37:17;;;;;;;1.20;1.10;;;21.90;99.90;;;;;;5014087;28;20406;-73
2023/08/15 07:39:43;;;;;;;0.40;0.40;;;22.30;99.90;;;;;;5013776;28;20191;-73
2023/08/15 07:42:09;;;;;;;1.13;1.03;;;22.50;99.90;;;;;;5013731;28;20190;-73
2023/08/15 07:44:34;;;;;;;0.83;0.73;;;23.40;99.90;;;;;;5013693;28;20546;-73
2023/08/15 07:47:00;;;;;;;0.83;0.83;;;24.20;98.90;;;;;;5013706;28;20247;-73
2023/08/15 07:49:26;;;;;;;0.57;0.57;;;25.40;97.70;;;;;;5013767;28;20554;-73
2023/08/15 07:51:52;;;;;;;1.33;1.23;;;27.00;94.30;;;;;;5013538;28;20577;-73
2023/08/15 07:54:19;;;;;;;1.03;1.03;;;28.90;90.90;;;;;;5013640;28;20183;-73
2023/08/15 07:56:44;;;;;;;1.70;0.90;;;30.80;83.10;;;;;;5013731;28;20406;-71
2023/08/15 07:59:10;;;;;;;1.13;1.03;;;32.90;92.80;;;;;;5013119;28;20407;-71
2023/08/15 08:01:36;;;;;;;1.07;1.07;;;33.20;70.00;;;;;;5013291;28;20171;-72
2023/08/15 08:04:02;;;;;;;0.97;0.97;;;;;;;;;;5013560;28;20429;-71
2023/08/15 08:06:28;;;;;;;1.13;1.03;;;;;;;;;;5013969;28;20179;-71
2023/08/15 08:08:54;;;;;;;2.10;1.10;;;31.80;62.50;;;;;;5012899;28;20411;-71
2023/08/15 08:11:19;;;;;;;2.00;1.00;;;31.50;59.50;;;;;;5013950;28;20488;-71
2023/08/15 08:13:45;;;;;;;5.60;0.80;;;31.70;54.50;;;;;;5017638;28;20189;-71
2023/08/15 08:16:10;;;;;;;0.80;0.80;;;32.20;53.40;;;;;;5017257;28;20174;-71
2023/08/15 08:18:36;;;;;;;0.70;0.70;;;32.30;52.20;;;;;;5017396;28;20171;-71
2023/08/15 08:21:03;;;;;;;1.80;1.23;;;32.30;51.10;;;;;;5017237;28;20669;-71
2023/08/15 08:23:29;;;;;;;1.00;0.90;;;32.20;49.80;;;;;;5017211;28;20548;-71
2023/08/15 08:25:55;;;;;;;1.20;0.80;;;33.30;51.30;;;;;;5017215;28;20410;-71
2023/08/15 08:28:20;;;;;;;0.60;0.60;;;34.80;51.30;;;;;;5017225;28;20183;-72
2023/08/15 08:30:47;;;;;;;0.80;0.80;;;36.60;48.50;;;;;;5016987;28;20203;-71
2023/08/15 08:33:13;;;;;;;0.80;0.80;;;37.90;42.60;;;;;;5017130;28;20205;-71
2023/08/15 08:35:39;;;;;;;0.50;0.50;;;;;;;;;;5016774;28;20818;-72
2023/08/15 08:38:05;;;;;;;0.70;0.70;;;39.00;42.20;;;;;;5017177;28;20940;-72
2023/08/15 08:40:30;;;;;;;1.10;0.90;;;39.80;38.60;;;;;;5017065;28;20804;-71
2023/08/15 08:42:57;;;;;;;1.03;0.87;;;40.10;37.00;;;;;;5016868;28;20418;-72
2023/08/15 08:45:25;;;;;;;1.37;1.10;;;40.00;38.70;;;;;;5016911;28;20612;-72
2023/08/15 08:47:52;;;;;;;1.17;1.10;;;40.50;37.60;;;;;;5017039;28;20417;-72
2023/08/15 08:50:17;;;;;;;0.70;0.67;;;40.80;38.20;;;;;;5016726;28;20461;-72
2023/08/15 08:52:49;;;;;;;0.80;0.80;;;41.20;37.40;;;;;;5016932;28;20413;-72
2023/08/15 08:55:17;;;;;;;0.67;0.50;;;41.30;37.50;;;;;;5016585;28;20619;-72
2023/08/15 08:57:47;;;;;;;0.70;0.70;;;41.40;37.00;;;;;;5016716;28;20457;-72
2023/08/15 09:00:16;;;;;;;0.90;0.80;;;41.60;35.70;;;;;;5016722;28;20422;-72
2023/08/15 09:02:42;;;;;;;1.10;1.00;;;41.90;36.20;;;;;;5016682;28;20410;-72
2023/08/15 09:05:09;;;;;;;3.80;0.80;;;41.90;35.50;;;;;;5016293;28;20956;-72
2023/08/15 09:07:35;;;;;;;0.70;0.70;;;41.20;35.20;;;;;;5016539;28;20232;-72
2023/08/15 09:10:01;;;;;;;0.70;0.70;;;40.90;36.10;;;;;;5016518;28;20531;-72
2023/08/15 09:12:40;;;;;;;1.07;0.97;;;41.60;35.30;;;;;;5016385;28;20414;-72
2023/08/15 09:15:08;;;;;;;0.97;0.80;;;42.30;36.00;;;;;;5016256;28;20262;-72
2023/08/15 09:17:34;;;;;;;3.27;1.93;;;41.60;34.10;;;;;;5016549;28;20399;-72
2023/08/15 09:20:17;;;;;;;1.17;0.80;;;40.70;36.80;;;;;;5016061;28;20807;-72
2023/08/15 09:22:46;;;;;;;1.53;1.43;;;39.00;38.00;;;;;;5015741;28;20624;-72
2023/08/15 09:25:17;;;;;;;1.30;1.10;;;36.80;39.50;;;;;;5015785;28;20410;-71
2023/08/15 09:27:43;;;;;;;4.33;1.23;;;35.30;41.80;;;;;;5016071;28;20780;-71
2023/08/15 09:30:14;;;;;;;0.93;0.40;;;33.90;44.10;;;;;;5016055;28;20469;-71
2023/08/15 09:32:42;;;;;;;0.97;0.87;;;33.20;46.40;;;;;;5015598;28;20426;-72
2023/08/15 09:35:09;;;;;;;1.40;1.20;;;32.90;46.50;;;;;;5015614;28;20410;-71
2023/08/15 09:37:40;;;;;;;1.00;0.90;;;32.90;48.60;;;;;;5015793;28;20410;-71
2023/08/15 09:40:08;;;;;;;1.30;1.00;;;33.30;47.10;;;;;;5015767;28;20436;-72
2023/08/15 09:42:35;;;;;;;1.47;1.00;;;34.00;45.40;;;;;;5015834;28;20422;-72
2023/08/15 09:45:03;;;;;;;1.40;1.30;;;34.90;44.70;;;;;;5015747;28;20418;-72
2023/08/15 09:47:29;;;;;;;1.47;1.20;;;36.00;43.70;;;;;;5015742;28;20432;-71
2023/08/15 09:49:55;;;;;;;1.07;0.70;;;36.80;41.80;;;;;;5015466;28;20513;-72
2023/08/15 09:52:23;;;;;;;1.23;0.90;;;37.10;43.10;;;;;;5015923;28;20534;-72
2023/08/15 09:54:49;;;;;;;1.13;0.87;;;37.50;40.70;;;;;;5015188;28;20493;-72
2023/08/15 09:57:15;;;;;;;1.40;0.90;;;36.90;40.40;;;;;;5015635;28;20953;-71
2023/08/15 09:59:40;;;;;;;1.97;1.30;;;36.30;40.50;;;;;;5015552;28;20513;-71
2023/08/15 10:02:20;;;;;;;1.77;1.60;;;36.60;40.50;;;;;;5015601;28;20536;-71
2023/08/15 10:04:48;;;;;;;1.80;0.97;;;36.60;41.00;;;;;;5015309;28;20167;-72
2023/08/15 10:07:14;;;;;;;1.53;1.30;;;36.50;41.70;;;;;;5015275;28;20414;-71
2023/08/15 10:09:40;;;;;;;0.60;0.60;;;36.80;41.50;;;;;;5015247;28;20434;-72
2023/08/15 10:12:07;;;;;;;0.70;0.70;;;36.80;43.00;;;;;;5015239;28;20175;-71
2023/08/15 10:14:32;;;;;;;2.10;1.10;;;37.10;41.10;;;;;;5015145;28;20962;-72
2023/08/15 10:16:58;;;;;;;1.67;1.40;;;37.20;42.00;;;;;;5015222;28;20497;-72
2023/08/15 10:19:29;;;;;;;0.93;0.83;;;36.20;40.30;;;;;;5015020;28;20206;-71
2023/08/15 10:21:55;;;;;;;1.20;0.87;;;36.20;40.70;;;;;;5015302;28;20649;-72
2023/08/15 10:24:22;;;;;;;1.10;1.00;;;36.30;43.90;;;;;;5015067;28;20506;-72
2023/08/15 10:26:50;;;;;;;1.40;1.03;;;36.30;44.40;;;;;;5014991;28;20255;-72
2023/08/15 10:29:16;;;;;;;1.13;1.00;;;36.10;65.60;;;;;;5015036;28;20415;-71
2023/08/15 10:31:42;;;;;;;2.40;0.90;;;35.90;42.60;;;;;;5015207;28;20886;-71
2023/08/15 10:34:09;;;;;;;0.80;0.60;;;35.80;42.90;;;;;;5014799;28;20180;-72
2023/08/15 10:36:35;;;;;;;1.27;0.80;;;35.60;44.30;;;;;;5014783;28;20202;-71
2023/08/15 10:39:07;;;;;;;0.70;0.70;;;34.70;56.40;;;;;;5014875;28;20818;-71
2023/08/15 10:41:36;;;;;;;0.90;0.90;;;34.90;43.40;;;;;;5014666;28;20589;-71
2023/08/15 10:44:06;;;;;;;0.80;0.80;;;34.60;45.20;;;;;;5014543;28;20406;-71
2023/08/15 10:46:35;;;;;;;1.97;1.87;;;34.50;43.50;;;;;;5014725;28;20429;-71
2023/08/15 10:49:07;;;;;;;1.00;1.00;;;34.70;57.30;;;;;;5014664;28;20414;-71
2023/08/15 10:51:33;;;;;;;1.17;0.60;;;;;;;;;;5014454;28;20457;-71
2023/08/15 10:54:01;;;;;;;1.07;0.67;;;34.60;44.90;;;;;;5014295;28;20407;-72
2023/08/15 10:56:29;;;;;;;1.10;1.00;;;34.50;46.00;;;;;;5014611;28;20493;-71
2023/08/15 10:58:56;;;;;;;1.13;1.10;;;34.00;44.00;;;;;;5014668;28;20406;-71
2023/08/15 11:01:24;;;;;;;2.30;0.90;;;33.90;43.30;;;;;;5014109;28;20997;-71
2023/08/15 11:03:52;;;;;;;0.80;0.80;;;33.60;45.20;;;;;;5014296;28;20497;-71
2023/08/15 11:06:18;;;;;;;1.60;1.17;;;33.00;45.20;;;;;;5014500;28;20411;-71
2023/08/15 11:08:58;;;;;;;0.60;0.60;;;32.50;47.70;;;;;;5014226;28;20410;-71
2023/08/15 11:11:24;;;;;;;1.10;1.10;;;31.70;46.50;;;;;;5014188;28;20457;-71
2023/08/15 11:13:52;;;;;;;1.30;1.20;;;31.50;48.80;;;;;;5014272;28;20405;-71
2023/08/15 11:16:22;;;;;;;1.07;1.07;;;31.50;51.80;;;;;;5014077;28;20414;-71
2023/08/15 11:18:48;;;;;;;1.30;1.00;;;31.50;52.20;;;;;;5014020;28;20429;-71
2023/08/15 11:21:16;;;;;;;0.60;0.60;;;31.40;49.90;;;;;;5014179;28;20434;-71
2023/08/15 11:23:42;;;;;;;1.00;1.00;;;31.40;49.10;;;;;;5014048;28;20414;-71
2023/08/15 11:26:10;;;;;;;0.80;0.80;;;31.50;46.60;;;;;;5013783;28;20586;-71
2023/08/15 11:28:37;;;;;;;1.10;1.10;;;31.50;47.30;;;;;;5013998;28;20414;-71
2023/08/15 11:31:14;;;;;;;1.20;1.00;;;31.50;48.40;;;;;;5013761;28;20549;-71
2023/08/15 11:33:40;;;;;;;1.00;1.00;;;;;;;;;;4996288;28;20418;-71
2023/08/15 11:36:08;;;;;;;0.70;0.70;;;30.90;44.70;;;;;;5013645;28;20399;-71
2023/08/15 11:38:35;;;;;;;1.00;0.60;;;30.60;48.70;;;;;;5013817;28;20415;-71
2023/08/15 11:41:02;;;;;;;1.47;1.10;;;30.70;49.70;;;;;;5013659;28;20500;-71
2023/08/15 11:43:29;;;;;;;0.70;0.70;;;30.60;49.80;;;;;;5013838;28;20417;-71
2023/08/15 11:45:55;;;;;;;1.13;0.87;;;30.60;50.30;;;;;;5013184;28;20460;-71
2023/08/15 11:48:21;;;;;;;1.50;1.00;;;30.50;50.10;;;;;;5013566;28;20882;-71
2023/08/15 11:50:47;;;;;;;0.83;0.83;;;30.50;49.70;;;;;;5013532;28;20470;-71
2023/08/15 11:53:15;;;;;;;0.50;0.50;;;30.40;49.80;;;;;;5013611;28;20481;-71
2023/08/15 11:55:42;;;;;;;0.67;0.67;;;30.40;50.30;;;;;;5013168;28;20198;-71
2023/08/15 11:58:27;;;;;;;1.07;0.77;;;30.50;51.00;;;;;;5013322;28;20748;-71
2023/08/15 12:01:07;;;;;;;1.17;0.83;;;30.80;49.10;;;;;;5013260;28;20430;-71
2023/08/15 12:03:34;;;;;;;0.90;0.73;;;31.00;50.20;;;;;;5013826;28;20493;-71
2023/08/15 12:06:06;;;;;;;0.80;0.60;;;30.90;49.10;;;;;;5013401;28;20418;-71
2023/08/15 12:08:32;;;;;;;8.20;1.63;;;30.80;51.80;;;;;;5013551;28;20414;-71
2023/08/15 12:11:01;;;;;;;0.80;0.80;;;30.80;50.10;;;;;;5013257;28;20494;-71
2023/08/15 12:13:38;;;;;;;0.87;0.70;;;30.70;48.50;;;;;;5013165;28;20453;-71
2023/08/15 12:16:06;;;;;;;0.60;0.50;;;30.70;48.60;;;;;;5013096;28;20409;-71
2023/08/15 12:18:32;;;;;;;1.27;0.70;;;30.40;46.80;;;;;;5013284;28;20406;-70
2023/08/15 12:20:59;;;;;;;1.30;0.80;;;30.30;47.30;;;;;;5013047;28;20490;-72
2023/08/15 12:23:25;;;;;;;0.60;0.60;;;30.30;49.50;;;;;;5013430;28;20428;-73
2023/08/15 12:25:51;;;;;;;4.23;0.63;;;30.30;49.90;;;;;;5013085;28;20806;-73
2023/08/15 12:28:20;;;;;;;2.47;0.87;;;30.50;77.40;;;;;;5013354;28;20421;-74
2023/08/15 12:30:46;;;;;;;0.53;0.50;;;30.20;49.90;;;;;;5013096;28;20483;-74
2023/08/15 12:33:12;;;;;;;0.70;0.60;;;30.10;53.00;;;;;;5013238;28;20421;-74
2023/08/15 12:35:38;;;;;;;0.80;0.80;;;;;;;;;;5013249;28;20399;-73
2023/08/15 12:38:04;;;;;;;1.67;1.57;;;30.00;50.80;;;;;;5013155;28;20547;-74
2023/08/15 12:40:31;;;;;;;1.30;1.20;;;29.80;49.90;;;;;;5013282;28;20430;-73
2023/08/15 12:42:57;;;;;;;1.03;0.83;;;;;;;;;;5013194;28;20178;-73
2023/08/15 12:45:23;;;;;;;0.87;0.87;;;29.60;49.70;;;;;;5012982;28;20410;-73
2023/08/15 12:47:49;;;;;;;0.60;0.50;;;;;;;;;;5013345;28;20473;-76
2023/08/15 12:50:14;;;;;;;0.90;0.80;;;29.50;50.00;;;;;;5012698;28;20287;-73
2023/08/15 12:52:40;;;;;;;1.17;0.70;;;29.50;50.50;;;;;;5013095;28;20411;-73
2023/08/15 12:55:06;;;;;;;0.90;0.90;;;29.50;50.90;;;;;;5013015;28;20210;-72
2023/08/15 12:57:31;;;;;;;1.83;1.00;;;29.40;52.80;;;;;;5013072;28;20723;-72
2023/08/15 12:59:58;;;;;;;1.30;0.80;;;29.40;59.40;;;;;;5015124;28;20192;-73
2023/08/15 13:02:24;;;;;;;1.30;1.20;;;29.30;56.50;;;;;;5015471;28;20168;-72